Ralph Wien Memorial Airport
PAOT : now visible

Airfield :











YOU CAN JOIN US ON...

 
LOGIN :

Register | Disclaimer

   EN    FR    IT 

 









Legend :    VFR   Marginal VFR   IFR   Intensive IFR   Very Intensive IFR
Visi :
Ceiling :
>= 8 km
>= 3000ft
5 to 8 km
1000 to 3000 ft
1500m to 5 km
500 to 1000 ft
800 to 1500m
200 to 500 ft
< 800m
< 200 ft
Symbols :   Thunderstorms  Fog  Heavy snow  Heavy precipitations  Wind > 20 kt






- Airport Elevation : 14 ft
- IATA code : OTZ


PAOT - Ralph Wien Memorial

CURRENT METAR :
  • 301453Z 05008KT 10SM CLR 09/03 A2996 RMK AO2 SLP146 T00890033 56014

EXPIRED METARs :
  • 301353Z AUTO 06005KT 10SM CLR 07/03 A2998 RMK AO2 SLP150 T00720028 TSNO
  • 301253Z AUTO 05005KT 10SM CLR 08/03 A2999 RMK AO2 SLP155 T00780028 TSNO

TAF PAOT
Valid from the 30 at 12:00 until the 31 at 12:00 UTC


301139Z 3012/3112 VRB04KT P6SM SKC
FM301900 06009KT P6SM SKC
PAZA FIR / North America



MET'MAP, your aeronautical weather chart ! - Copyright ORBIFLY December 2007 - Disclaimer

ORBIFLY MET'MAP TEAM :

Programming & Development : Alexandra Zaïnal
Concept & original design : Baudouin d'Aumeries
Assistance for programming : Marc-Olivier Méhu
Technical & hardware support : Manuel Goepfert

Contact : metmap@orbifly.com




SOURCES & CREDITS :

   NOAA       Earth
Advisory